sensor_id;sensor_type;location;lat;lon;timestamp;P1;durP1;ratioP1;P2;durP2;ratioP2
56581;SDS011;42463;52.214;21.238;2023-02-17T00:00:23;65.70;;;31.10;;
56581;SDS011;42463;52.214;21.238;2023-02-17T00:02:56;62.10;;;29.10;;
56581;SDS011;42463;52.214;21.238;2023-02-17T00:05:25;67.80;;;30.80;;
56581;SDS011;42463;52.214;21.238;2023-02-17T00:07:50;61.20;;;27.00;;
56581;SDS011;42463;52.214;21.238;2023-02-17T00:10:15;70.90;;;31.80;;
56581;SDS011;42463;52.214;21.238;2023-02-17T00:12:41;68.20;;;32.10;;
56581;SDS011;42463;52.214;21.238;2023-02-17T00:15:07;68.80;;;30.20;;
56581;SDS011;42463;52.214;21.238;2023-02-17T00:17:32;65.50;;;30.00;;
56581;SDS011;42463;52.214;21.238;2023-02-17T00:19:57;57.60;;;27.50;;
56581;SDS011;42463;52.214;21.238;2023-02-17T00:22:22;71.40;;;31.60;;
56581;SDS011;42463;52.214;21.238;2023-02-17T00:24:47;73.60;;;32.50;;
56581;SDS011;42463;52.214;21.238;2023-02-17T00:27:12;73.40;;;32.40;;
56581;SDS011;42463;52.214;21.238;2023-02-17T00:29:37;71.50;;;32.60;;
56581;SDS011;42463;52.214;21.238;2023-02-17T00:32:02;69.30;;;30.90;;
56581;SDS011;42463;52.214;21.238;2023-02-17T00:34:27;67.00;;;30.00;;
56581;SDS011;42463;52.214;21.238;2023-02-17T00:36:52;69.60;;;30.20;;
56581;SDS011;42463;52.214;21.238;2023-02-17T00:39:17;69.10;;;31.90;;
56581;SDS011;42463;52.214;21.238;2023-02-17T00:41:43;70.50;;;32.10;;
56581;SDS011;42463;52.214;21.238;2023-02-17T00:44:09;71.00;;;31.50;;
56581;SDS011;42463;52.214;21.238;2023-02-17T00:46:40;66.30;;;29.60;;
56581;SDS011;42463;52.214;21.238;2023-02-17T00:49:04;69.00;;;31.90;;
56581;SDS011;42463;52.214;21.238;2023-02-17T00:51:29;74.70;;;31.60;;
56581;SDS011;42463;52.214;21.238;2023-02-17T00:53:54;72.70;;;31.80;;
56581;SDS011;42463;52.214;21.238;2023-02-17T00:56:20;59.80;;;29.50;;
56581;SDS011;42463;52.214;21.238;2023-02-17T00:58:45;71.80;;;33.00;;
56581;SDS011;42463;52.214;21.238;2023-02-17T01:01:11;70.30;;;30.60;;
56581;SDS011;42463;52.214;21.238;2023-02-17T01:03:35;58.40;;;28.60;;
56581;SDS011;42463;52.214;21.238;2023-02-17T01:06:05;60.80;;;27.40;;
56581;SDS011;42463;52.214;21.238;2023-02-17T01:08:31;70.90;;;32.40;;
56581;SDS011;42463;52.214;21.238;2023-02-17T01:10:57;71.30;;;32.80;;
56581;SDS011;42463;52.214;21.238;2023-02-17T01:13:21;72.50;;;33.00;;
56581;SDS011;42463;52.214;21.238;2023-02-17T01:15:47;75.00;;;33.70;;
56581;SDS011;42463;52.214;21.238;2023-02-17T01:18:16;81.50;;;33.00;;
56581;SDS011;42463;52.214;21.238;2023-02-17T01:20:41;70.90;;;31.40;;
56581;SDS011;42463;52.214;21.238;2023-02-17T01:23:07;70.40;;;33.40;;
56581;SDS011;42463;52.214;21.238;2023-02-17T01:25:36;73.70;;;33.70;;
56581;SDS011;42463;52.214;21.238;2023-02-17T01:28:01;69.90;;;31.90;;
56581;SDS011;42463;52.214;21.238;2023-02-17T01:30:26;71.20;;;31.30;;
56581;SDS011;42463;52.214;21.238;2023-02-17T01:32:51;71.20;;;31.40;;
56581;SDS011;42463;52.214;21.238;2023-02-17T01:35:18;67.50;;;30.00;;
56581;SDS011;42463;52.214;21.238;2023-02-17T01:37:43;65.00;;;31.20;;
56581;SDS011;42463;52.214;21.238;2023-02-17T01:40:10;79.60;;;34.40;;
56581;SDS011;42463;52.214;21.238;2023-02-17T01:42:36;71.30;;;31.50;;
56581;SDS011;42463;52.214;21.238;2023-02-17T01:48:08;71.30;;;32.10;;
56581;SDS011;42463;52.214;21.238;2023-02-17T01:50:35;72.50;;;32.40;;
56581;SDS011;42463;52.214;21.238;2023-02-17T01:53:08;67.10;;;30.80;;
56581;SDS011;42463;52.214;21.238;2023-02-17T01:55:36;74.10;;;32.60;;
56581;SDS011;42463;52.214;21.238;2023-02-17T01:58:04;66.50;;;31.90;;
56581;SDS011;42463;52.214;21.238;2023-02-17T02:04:02;77.10;;;33.00;;
56581;SDS011;42463;52.214;21.238;2023-02-17T02:06:28;68.10;;;31.80;;
56581;SDS011;42463;52.214;21.238;2023-02-17T02:08:57;63.90;;;30.60;;
56581;SDS011;42463;52.214;21.238;2023-02-17T02:11:24;68.70;;;31.10;;
56581;SDS011;42463;52.214;21.238;2023-02-17T02:13:50;65.70;;;29.80;;
56581;SDS011;42463;52.214;21.238;2023-02-17T02:16:17;70.30;;;31.80;;
56581;SDS011;42463;52.214;21.238;2023-02-17T02:18:50;49.10;;;23.40;;
56581;SDS011;42463;52.214;21.238;2023-02-17T02:24:19;65.40;;;30.20;;
56581;SDS011;42463;52.214;21.238;2023-02-17T02:32:53;66.70;;;30.20;;
56581;SDS011;42463;52.214;21.238;2023-02-17T02:35:27;72.40;;;31.70;;
56581;SDS011;42463;52.214;21.238;2023-02-17T02:38:01;67.10;;;29.40;;
56581;SDS011;42463;52.214;21.238;2023-02-17T02:40:34;67.40;;;31.00;;
56581;SDS011;42463;52.214;21.238;2023-02-17T02:43:03;75.70;;;33.60;;
56581;SDS011;42463;52.214;21.238;2023-02-17T02:45:29;68.60;;;32.20;;
56581;SDS011;42463;52.214;21.238;2023-02-17T02:47:57;67.80;;;30.80;;
56581;SDS011;42463;52.214;21.238;2023-02-17T02:50:25;70.40;;;32.10;;
56581;SDS011;42463;52.214;21.238;2023-02-17T02:52:59;73.90;;;32.60;;
56581;SDS011;42463;52.214;21.238;2023-02-17T02:55:46;61.70;;;27.50;;
56581;SDS011;42463;52.214;21.238;2023-02-17T02:58:17;60.60;;;29.10;;
56581;SDS011;42463;52.214;21.238;2023-02-17T03:00:51;72.30;;;32.90;;
56581;SDS011;42463;52.214;21.238;2023-02-17T03:03:21;72.10;;;32.60;;
56581;SDS011;42463;52.214;21.238;2023-02-17T03:05:53;72.10;;;32.40;;
56581;SDS011;42463;52.214;21.238;2023-02-17T03:08:26;75.30;;;32.80;;
56581;SDS011;42463;52.214;21.238;2023-02-17T03:10:57;67.50;;;31.70;;
56581;SDS011;42463;52.214;21.238;2023-02-17T03:13:27;69.90;;;32.00;;
56581;SDS011;42463;52.214;21.238;2023-02-17T03:15:54;62.40;;;28.10;;
56581;SDS011;42463;52.214;21.238;2023-02-17T03:18:19;66.20;;;30.40;;
56581;SDS011;42463;52.214;21.238;2023-02-17T03:20:44;74.10;;;33.40;;
56581;SDS011;42463;52.214;21.238;2023-02-17T03:23:14;71.30;;;32.60;;
56581;SDS011;42463;52.214;21.238;2023-02-17T03:25:39;69.30;;;33.00;;
56581;SDS011;42463;52.214;21.238;2023-02-17T03:28:06;70.90;;;32.30;;
56581;SDS011;42463;52.214;21.238;2023-02-17T03:30:31;71.10;;;31.20;;
56581;SDS011;42463;52.214;21.238;2023-02-17T03:32:59;62.10;;;29.70;;
56581;SDS011;42463;52.214;21.238;2023-02-17T03:35:24;70.30;;;32.70;;
56581;SDS011;42463;52.214;21.238;2023-02-17T03:37:48;74.60;;;33.50;;
56581;SDS011;42463;52.214;21.238;2023-02-17T03:40:13;73.40;;;34.00;;
56581;SDS011;42463;52.214;21.238;2023-02-17T03:42:38;73.90;;;31.90;;
56581;SDS011;42463;52.214;21.238;2023-02-17T03:45:04;62.40;;;29.90;;
56581;SDS011;42463;52.214;21.238;2023-02-17T03:47:29;62.50;;;30.50;;
56581;SDS011;42463;52.214;21.238;2023-02-17T03:49:53;59.60;;;29.50;;
56581;SDS011;42463;52.214;21.238;2023-02-17T03:52:18;64.30;;;30.90;;
56581;SDS011;42463;52.214;21.238;2023-02-17T03:54:43;67.00;;;30.90;;
56581;SDS011;42463;52.214;21.238;2023-02-17T03:57:08;72.50;;;33.20;;
56581;SDS011;42463;52.214;21.238;2023-02-17T03:59:33;68.50;;;30.20;;
56581;SDS011;42463;52.214;21.238;2023-02-17T04:01:59;71.20;;;34.00;;
56581;SDS011;42463;52.214;21.238;2023-02-17T04:04:23;71.80;;;32.80;;
56581;SDS011;42463;52.214;21.238;2023-02-17T04:06:51;66.40;;;30.70;;
56581;SDS011;42463;52.214;21.238;2023-02-17T04:09:16;70.20;;;31.30;;
56581;SDS011;42463;52.214;21.238;2023-02-17T04:11:41;64.20;;;29.20;;
56581;SDS011;42463;52.214;21.238;2023-02-17T04:14:08;64.80;;;30.30;;
56581;SDS011;42463;52.214;21.238;2023-02-17T04:16:33;64.90;;;29.50;;
56581;SDS011;42463;52.214;21.238;2023-02-17T04:19:00;70.60;;;30.90;;
56581;SDS011;42463;52.214;21.238;2023-02-17T04:21:24;62.50;;;28.70;;
56581;SDS011;42463;52.214;21.238;2023-02-17T04:23:50;67.70;;;32.60;;
56581;SDS011;42463;52.214;21.238;2023-02-17T04:26:15;64.00;;;31.80;;
56581;SDS011;42463;52.214;21.238;2023-02-17T04:28:41;65.50;;;29.70;;
56581;SDS011;42463;52.214;21.238;2023-02-17T04:31:06;73.40;;;33.10;;
56581;SDS011;42463;52.214;21.238;2023-02-17T04:33:31;67.50;;;32.90;;
56581;SDS011;42463;52.214;21.238;2023-02-17T04:35:56;75.40;;;32.10;;
56581;SDS011;42463;52.214;21.238;2023-02-17T04:38:21;75.30;;;33.00;;
56581;SDS011;42463;52.214;21.238;2023-02-17T04:40:46;65.30;;;30.60;;
56581;SDS011;42463;52.214;21.238;2023-02-17T04:43:11;63.00;;;30.20;;
56581;SDS011;42463;52.214;21.238;2023-02-17T04:45:36;67.00;;;31.60;;
56581;SDS011;42463;52.214;21.238;2023-02-17T04:48:01;72.90;;;33.80;;
56581;SDS011;42463;52.214;21.238;2023-02-17T04:50:26;64.60;;;29.20;;
56581;SDS011;42463;52.214;21.238;2023-02-17T04:52:51;69.40;;;32.30;;
56581;SDS011;42463;52.214;21.238;2023-02-17T04:55:16;73.50;;;34.10;;
56581;SDS011;42463;52.214;21.238;2023-02-17T04:57:41;75.50;;;31.60;;
56581;SDS011;42463;52.214;21.238;2023-02-17T05:00:06;68.80;;;33.30;;
56581;SDS011;42463;52.214;21.238;2023-02-17T05:02:32;65.80;;;30.80;;
56581;SDS011;42463;52.214;21.238;2023-02-17T05:04:57;68.00;;;31.60;;
56581;SDS011;42463;52.214;21.238;2023-02-17T05:07:22;76.40;;;33.10;;
56581;SDS011;42463;52.214;21.238;2023-02-17T05:09:47;66.20;;;30.00;;
56581;SDS011;42463;52.214;21.238;2023-02-17T05:12:12;71.90;;;32.60;;
56581;SDS011;42463;52.214;21.238;2023-02-17T05:14:37;56.10;;;25.40;;
56581;SDS011;42463;52.214;21.238;2023-02-17T05:17:02;62.90;;;29.20;;
56581;SDS011;42463;52.214;21.238;2023-02-17T05:19:27;71.60;;;30.30;;
56581;SDS011;42463;52.214;21.238;2023-02-17T05:21:53;72.00;;;33.20;;
56581;SDS011;42463;52.214;21.238;2023-02-17T05:24:18;67.10;;;30.20;;
56581;SDS011;42463;52.214;21.238;2023-02-17T05:26:43;66.90;;;30.00;;
56581;SDS011;42463;52.214;21.238;2023-02-17T05:29:07;66.30;;;32.00;;
56581;SDS011;42463;52.214;21.238;2023-02-17T05:31:32;66.30;;;29.40;;
56581;SDS011;42463;52.214;21.238;2023-02-17T05:33:57;66.80;;;31.70;;
56581;SDS011;42463;52.214;21.238;2023-02-17T05:36:22;69.30;;;32.20;;
56581;SDS011;42463;52.214;21.238;2023-02-17T05:38:46;67.10;;;31.60;;
56581;SDS011;42463;52.214;21.238;2023-02-17T05:41:11;66.80;;;30.50;;
56581;SDS011;42463;52.214;21.238;2023-02-17T05:43:36;66.40;;;31.30;;
56581;SDS011;42463;52.214;21.238;2023-02-17T05:46:02;73.70;;;32.40;;
56581;SDS011;42463;52.214;21.238;2023-02-17T05:48:27;67.10;;;31.20;;
56581;SDS011;42463;52.214;21.238;2023-02-17T05:50:53;68.90;;;31.90;;
56581;SDS011;42463;52.214;21.238;2023-02-17T05:53:18;72.30;;;32.10;;
56581;SDS011;42463;52.214;21.238;2023-02-17T05:55:43;67.70;;;30.60;;
56581;SDS011;42463;52.214;21.238;2023-02-17T05:58:08;75.90;;;32.70;;
56581;SDS011;42463;52.214;21.238;2023-02-17T06:00:33;67.20;;;31.30;;
56581;SDS011;42463;52.214;21.238;2023-02-17T06:02:58;70.80;;;31.20;;
56581;SDS011;42463;52.214;21.238;2023-02-17T06:05:22;64.40;;;30.20;;
56581;SDS011;42463;52.214;21.238;2023-02-17T06:07:47;69.20;;;32.60;;
56581;SDS011;42463;52.214;21.238;2023-02-17T06:10:12;68.90;;;31.00;;
56581;SDS011;42463;52.214;21.238;2023-02-17T06:12:37;71.10;;;32.30;;
56581;SDS011;42463;52.214;21.238;2023-02-17T06:15:02;63.80;;;30.40;;
56581;SDS011;42463;52.214;21.238;2023-02-17T06:17:27;61.20;;;30.00;;
56581;SDS011;42463;52.214;21.238;2023-02-17T06:19:52;68.80;;;31.50;;
56581;SDS011;42463;52.214;21.238;2023-02-17T06:22:17;73.20;;;32.90;;
56581;SDS011;42463;52.214;21.238;2023-02-17T06:24:44;66.00;;;31.30;;
56581;SDS011;42463;52.214;21.238;2023-02-17T06:27:10;70.50;;;32.30;;
56581;SDS011;42463;52.214;21.238;2023-02-17T06:29:35;67.10;;;32.60;;
56581;SDS011;42463;52.214;21.238;2023-02-17T06:32:00;56.30;;;28.80;;
56581;SDS011;42463;52.214;21.238;2023-02-17T06:34:25;74.70;;;32.50;;
56581;SDS011;42463;52.214;21.238;2023-02-17T06:36:50;78.00;;;33.50;;
56581;SDS011;42463;52.214;21.238;2023-02-17T06:39:14;75.50;;;33.80;;
56581;SDS011;42463;52.214;21.238;2023-02-17T06:41:39;62.60;;;29.70;;
56581;SDS011;42463;52.214;21.238;2023-02-17T06:44:07;75.60;;;32.60;;
56581;SDS011;42463;52.214;21.238;2023-02-17T06:46:32;69.80;;;31.40;;
56581;SDS011;42463;52.214;21.238;2023-02-17T06:48:59;79.20;;;35.70;;
56581;SDS011;42463;52.214;21.238;2023-02-17T06:51:24;72.10;;;34.60;;
56581;SDS011;42463;52.214;21.238;2023-02-17T06:53:49;79.30;;;34.10;;
56581;SDS011;42463;52.214;21.238;2023-02-17T06:56:13;67.60;;;32.00;;
56581;SDS011;42463;52.214;21.238;2023-02-17T06:58:38;59.60;;;27.90;;
56581;SDS011;42463;52.214;21.238;2023-02-17T07:01:03;70.00;;;34.30;;
56581;SDS011;42463;52.214;21.238;2023-02-17T07:03:32;67.00;;;30.30;;
56581;SDS011;42463;52.214;21.238;2023-02-17T07:05:58;80.40;;;33.50;;
56581;SDS011;42463;52.214;21.238;2023-02-17T07:08:23;72.90;;;32.10;;
56581;SDS011;42463;52.214;21.238;2023-02-17T07:10:47;74.80;;;33.50;;
56581;SDS011;42463;52.214;21.238;2023-02-17T07:13:12;62.50;;;30.60;;
56581;SDS011;42463;52.214;21.238;2023-02-17T07:15:37;60.80;;;26.60;;
56581;SDS011;42463;52.214;21.238;2023-02-17T07:18:02;57.20;;;27.00;;
56581;SDS011;42463;52.214;21.238;2023-02-17T07:20:27;70.70;;;32.10;;
56581;SDS011;42463;52.214;21.238;2023-02-17T07:22:53;68.50;;;32.30;;
56581;SDS011;42463;52.214;21.238;2023-02-17T07:25:17;47.90;;;23.60;;
56581;SDS011;42463;52.214;21.238;2023-02-17T07:27:42;67.80;;;31.80;;
56581;SDS011;42463;52.214;21.238;2023-02-17T07:30:08;56.70;;;27.60;;
56581;SDS011;42463;52.214;21.238;2023-02-17T07:32:34;72.20;;;29.00;;
56581;SDS011;42463;52.214;21.238;2023-02-17T07:34:59;78.20;;;33.60;;
56581;SDS011;42463;52.214;21.238;2023-02-17T07:37:24;150.30;;;42.00;;
56581;SDS011;42463;52.214;21.238;2023-02-17T07:39:49;154.30;;;42.70;;
56581;SDS011;42463;52.214;21.238;2023-02-17T07:42:14;108.00;;;37.80;;
56581;SDS011;42463;52.214;21.238;2023-02-17T07:44:40;196.20;;;47.40;;
56581;SDS011;42463;52.214;21.238;2023-02-17T07:47:05;124.90;;;37.80;;
56581;SDS011;42463;52.214;21.238;2023-02-17T07:49:30;96.50;;;36.00;;
56581;SDS011;42463;52.214;21.238;2023-02-17T07:51:54;123.20;;;36.90;;
56581;SDS011;42463;52.214;21.238;2023-02-17T07:54:19;87.20;;;32.30;;
56581;SDS011;42463;52.214;21.238;2023-02-17T07:56:43;195.30;;;42.90;;
56581;SDS011;42463;52.214;21.238;2023-02-17T07:59:17;187.10;;;44.20;;
56581;SDS011;42463;52.214;21.238;2023-02-17T08:01:42;123.10;;;34.90;;
56581;SDS011;42463;52.214;21.238;2023-02-17T08:04:06;129.20;;;36.90;;
56581;SDS011;42463;52.214;21.238;2023-02-17T08:06:32;64.10;;;29.30;;
56581;SDS011;42463;52.214;21.238;2023-02-17T08:08:56;70.20;;;32.50;;
56581;SDS011;42463;52.214;21.238;2023-02-17T08:11:44;75.20;;;33.40;;
56581;SDS011;42463;52.214;21.238;2023-02-17T08:14:27;63.30;;;29.60;;
56581;SDS011;42463;52.214;21.238;2023-02-17T08:16:53;288.70;;;50.70;;
56581;SDS011;42463;52.214;21.238;2023-02-17T08:19:19;145.40;;;40.10;;
56581;SDS011;42463;52.214;21.238;2023-02-17T08:21:47;83.50;;;33.50;;
56581;SDS011;42463;52.214;21.238;2023-02-17T08:24:13;67.10;;;31.40;;
56581;SDS011;42463;52.214;21.238;2023-02-17T08:26:43;79.10;;;33.00;;
56581;SDS011;42463;52.214;21.238;2023-02-17T08:29:08;63.90;;;28.30;;
56581;SDS011;42463;52.214;21.238;2023-02-17T08:31:34;70.40;;;30.60;;
56581;SDS011;42463;52.214;21.238;2023-02-17T08:34:00;165.30;;;45.20;;
56581;SDS011;42463;52.214;21.238;2023-02-17T08:36:27;69.00;;;31.10;;
56581;SDS011;42463;52.214;21.238;2023-02-17T08:38:52;64.50;;;31.60;;
56581;SDS011;42463;52.214;21.238;2023-02-17T08:41:19;66.10;;;30.90;;
56581;SDS011;42463;52.214;21.238;2023-02-17T08:43:46;63.90;;;31.00;;
56581;SDS011;42463;52.214;21.238;2023-02-17T08:46:12;109.50;;;34.90;;
56581;SDS011;42463;52.214;21.238;2023-02-17T08:48:37;68.40;;;30.90;;
56581;SDS011;42463;52.214;21.238;2023-02-17T08:51:03;60.50;;;27.70;;
56581;SDS011;42463;52.214;21.238;2023-02-17T08:53:28;58.30;;;27.80;;
56581;SDS011;42463;52.214;21.238;2023-02-17T08:55:53;65.70;;;29.50;;
56581;SDS011;42463;52.214;21.238;2023-02-17T08:58:18;51.30;;;27.00;;
56581;SDS011;42463;52.214;21.238;2023-02-17T09:00:43;67.30;;;29.40;;
56581;SDS011;42463;52.214;21.238;2023-02-17T09:03:07;62.20;;;28.50;;
56581;SDS011;42463;52.214;21.238;2023-02-17T09:05:32;62.70;;;28.40;;
56581;SDS011;42463;52.214;21.238;2023-02-17T09:07:57;56.80;;;26.20;;
56581;SDS011;42463;52.214;21.238;2023-02-17T09:10:22;54.00;;;25.40;;
56581;SDS011;42463;52.214;21.238;2023-02-17T09:12:47;70.90;;;30.60;;
56581;SDS011;42463;52.214;21.238;2023-02-17T09:15:12;70.10;;;31.60;;
56581;SDS011;42463;52.214;21.238;2023-02-17T09:17:39;66.30;;;31.60;;
56581;SDS011;42463;52.214;21.238;2023-02-17T09:20:05;53.50;;;24.30;;
56581;SDS011;42463;52.214;21.238;2023-02-17T09:22:30;60.80;;;29.10;;
56581;SDS011;42463;52.214;21.238;2023-02-17T09:24:55;57.00;;;26.80;;
56581;SDS011;42463;52.214;21.238;2023-02-17T09:27:19;66.90;;;30.80;;
56581;SDS011;42463;52.214;21.238;2023-02-17T09:29:44;62.80;;;28.00;;
56581;SDS011;42463;52.214;21.238;2023-02-17T09:32:09;54.30;;;25.00;;
56581;SDS011;42463;52.214;21.238;2023-02-17T09:34:34;66.10;;;28.80;;
56581;SDS011;42463;52.214;21.238;2023-02-17T09:36:59;60.10;;;27.30;;
56581;SDS011;42463;52.214;21.238;2023-02-17T09:39:24;58.50;;;27.80;;
56581;SDS011;42463;52.214;21.238;2023-02-17T09:41:49;56.20;;;27.00;;
56581;SDS011;42463;52.214;21.238;2023-02-17T09:44:18;51.10;;;25.50;;
56581;SDS011;42463;52.214;21.238;2023-02-17T09:46:46;50.60;;;26.30;;
56581;SDS011;42463;52.214;21.238;2023-02-17T09:49:24;48.10;;;24.20;;
56581;SDS011;42463;52.214;21.238;2023-02-17T09:51:52;59.70;;;27.60;;
56581;SDS011;42463;52.214;21.238;2023-02-17T09:54:23;52.50;;;26.30;;
56581;SDS011;42463;52.214;21.238;2023-02-17T09:56:53;56.80;;;27.90;;
56581;SDS011;42463;52.214;21.238;2023-02-17T09:59:22;57.70;;;28.00;;
56581;SDS011;42463;52.214;21.238;2023-02-17T10:01:51;55.20;;;27.30;;
56581;SDS011;42463;52.214;21.238;2023-02-17T10:04:18;59.10;;;28.40;;
56581;SDS011;42463;52.214;21.238;2023-02-17T10:06:46;57.90;;;26.30;;
56581;SDS011;42463;52.214;21.238;2023-02-17T10:09:18;56.50;;;25.70;;
56581;SDS011;42463;52.214;21.238;2023-02-17T10:11:49;46.10;;;23.30;;
56581;SDS011;42463;52.214;21.238;2023-02-17T10:14:24;56.30;;;25.90;;
56581;SDS011;42463;52.214;21.238;2023-02-17T10:16:52;54.30;;;24.90;;
56581;SDS011;42463;52.214;21.238;2023-02-17T10:19:24;54.70;;;25.40;;
56581;SDS011;42463;52.214;21.238;2023-02-17T10:21:56;53.60;;;26.90;;
56581;SDS011;42463;52.214;21.238;2023-02-17T10:26:53;54.00;;;26.00;;
56581;SDS011;42463;52.214;21.238;2023-02-17T10:29:36;48.30;;;23.00;;
56581;SDS011;42463;52.214;21.238;2023-02-17T10:32:17;49.00;;;23.70;;
56581;SDS011;42463;52.214;21.238;2023-02-17T10:34:46;54.70;;;26.90;;
56581;SDS011;42463;52.214;21.238;2023-02-17T10:37:19;47.80;;;22.50;;
56581;SDS011;42463;52.214;21.238;2023-02-17T10:39:52;49.80;;;24.40;;
56581;SDS011;42463;52.214;21.238;2023-02-17T10:42:21;47.50;;;23.20;;
56581;SDS011;42463;52.214;21.238;2023-02-17T10:44:50;57.30;;;26.50;;
56581;SDS011;42463;52.214;21.238;2023-02-17T10:47:20;52.80;;;26.50;;
56581;SDS011;42463;52.214;21.238;2023-02-17T10:49:46;54.60;;;25.80;;
56581;SDS011;42463;52.214;21.238;2023-02-17T10:52:16;58.40;;;26.70;;
56581;SDS011;42463;52.214;21.238;2023-02-17T10:54:43;57.20;;;26.20;;
56581;SDS011;42463;52.214;21.238;2023-02-17T10:57:12;51.70;;;26.60;;
56581;SDS011;42463;52.214;21.238;2023-02-17T10:59:39;48.70;;;25.20;;
56581;SDS011;42463;52.214;21.238;2023-02-17T11:02:12;49.80;;;24.20;;
56581;SDS011;42463;52.214;21.238;2023-02-17T11:04:40;52.70;;;24.40;;
56581;SDS011;42463;52.214;21.238;2023-02-17T11:07:08;60.40;;;27.90;;
56581;SDS011;42463;52.214;21.238;2023-02-17T11:09:38;50.60;;;22.80;;
56581;SDS011;42463;52.214;21.238;2023-02-17T11:12:11;51.00;;;23.70;;
56581;SDS011;42463;52.214;21.238;2023-02-17T11:14:42;57.00;;;25.90;;
56581;SDS011;42463;52.214;21.238;2023-02-17T11:17:13;49.70;;;25.10;;
56581;SDS011;42463;52.214;21.238;2023-02-17T11:19:52;50.10;;;25.20;;
56581;SDS011;42463;52.214;21.238;2023-02-17T11:22:28;47.70;;;23.30;;
56581;SDS011;42463;52.214;21.238;2023-02-17T11:24:58;59.40;;;28.20;;
56581;SDS011;42463;52.214;21.238;2023-02-17T11:27:24;50.80;;;24.50;;
56581;SDS011;42463;52.214;21.238;2023-02-17T11:29:49;49.60;;;23.40;;
56581;SDS011;42463;52.214;21.238;2023-02-17T11:32:15;43.30;;;21.30;;
56581;SDS011;42463;52.214;21.238;2023-02-17T11:34:41;44.40;;;21.00;;
56581;SDS011;42463;52.214;21.238;2023-02-17T11:37:14;47.90;;;22.90;;
56581;SDS011;42463;52.214;21.238;2023-02-17T11:39:46;50.30;;;24.50;;
56581;SDS011;42463;52.214;21.238;2023-02-17T11:42:15;51.40;;;23.50;;
56581;SDS011;42463;52.214;21.238;2023-02-17T11:44:43;55.00;;;25.20;;
56581;SDS011;42463;52.214;21.238;2023-02-17T11:47:10;51.00;;;24.20;;
56581;SDS011;42463;52.214;21.238;2023-02-17T11:49:51;57.30;;;27.10;;
56581;SDS011;42463;52.214;21.238;2023-02-17T11:52:29;44.80;;;22.50;;
56581;SDS011;42463;52.214;21.238;2023-02-17T11:58:00;49.80;;;23.60;;
56581;SDS011;42463;52.214;21.238;2023-02-17T12:00:39;51.80;;;24.70;;
56581;SDS011;42463;52.214;21.238;2023-02-17T12:03:19;47.70;;;24.20;;
56581;SDS011;42463;52.214;21.238;2023-02-17T12:06:12;36.40;;;17.80;;
56581;SDS011;42463;52.214;21.238;2023-02-17T12:08:46;53.10;;;24.30;;
56581;SDS011;42463;52.214;21.238;2023-02-17T12:11:18;53.20;;;25.40;;
56581;SDS011;42463;52.214;21.238;2023-02-17T12:13:54;48.90;;;24.00;;
56581;SDS011;42463;52.214;21.238;2023-02-17T12:16:36;46.40;;;21.70;;
56581;SDS011;42463;52.214;21.238;2023-02-17T12:19:11;45.30;;;23.50;;
56581;SDS011;42463;52.214;21.238;2023-02-17T12:21:54;45.70;;;22.80;;
56581;SDS011;42463;52.214;21.238;2023-02-17T12:24:42;49.70;;;23.00;;
56581;SDS011;42463;52.214;21.238;2023-02-17T12:27:28;50.20;;;26.10;;
56581;SDS011;42463;52.214;21.238;2023-02-17T12:30:05;58.20;;;25.60;;
56581;SDS011;42463;52.214;21.238;2023-02-17T12:32:46;54.20;;;25.50;;
56581;SDS011;42463;52.214;21.238;2023-02-17T12:35:23;49.50;;;22.20;;
56581;SDS011;42463;52.214;21.238;2023-02-17T12:37:58;52.10;;;25.00;;
56581;SDS011;42463;52.214;21.238;2023-02-17T12:40:30;60.10;;;25.40;;
56581;SDS011;42463;52.214;21.238;2023-02-17T12:42:58;49.70;;;23.60;;
56581;SDS011;42463;52.214;21.238;2023-02-17T12:45:32;50.70;;;24.00;;
56581;SDS011;42463;52.214;21.238;2023-02-17T12:48:02;46.80;;;23.20;;
56581;SDS011;42463;52.214;21.238;2023-02-17T12:50:36;51.60;;;23.60;;
56581;SDS011;42463;52.214;21.238;2023-02-17T12:53:06;67.80;;;26.00;;
56581;SDS011;42463;52.214;21.238;2023-02-17T12:55:39;55.00;;;24.00;;
56581;SDS011;42463;52.214;21.238;2023-02-17T12:58:11;48.10;;;22.70;;
56581;SDS011;42463;52.214;21.238;2023-02-17T13:00:41;52.50;;;24.30;;
56581;SDS011;42463;52.214;21.238;2023-02-17T13:03:08;52.70;;;25.70;;
56581;SDS011;42463;52.214;21.238;2023-02-17T13:05:36;52.30;;;23.90;;
56581;SDS011;42463;52.214;21.238;2023-02-17T13:08:08;53.90;;;25.00;;
56581;SDS011;42463;52.214;21.238;2023-02-17T13:10:38;57.80;;;27.40;;
56581;SDS011;42463;52.214;21.238;2023-02-17T13:13:05;45.70;;;22.80;;
56581;SDS011;42463;52.214;21.238;2023-02-17T13:15:34;45.60;;;24.10;;
56581;SDS011;42463;52.214;21.238;2023-02-17T13:18:02;43.20;;;20.50;;
56581;SDS011;42463;52.214;21.238;2023-02-17T13:20:39;46.40;;;22.90;;
56581;SDS011;42463;52.214;21.238;2023-02-17T13:23:25;52.30;;;24.60;;
56581;SDS011;42463;52.214;21.238;2023-02-17T13:26:07;47.70;;;23.60;;
56581;SDS011;42463;52.214;21.238;2023-02-17T13:28:37;49.10;;;24.70;;
56581;SDS011;42463;52.214;21.238;2023-02-17T13:31:14;42.40;;;22.60;;
56581;SDS011;42463;52.214;21.238;2023-02-17T13:33:43;48.80;;;24.20;;
56581;SDS011;42463;52.214;21.238;2023-02-17T13:36:14;40.40;;;21.00;;
56581;SDS011;42463;52.214;21.238;2023-02-17T13:38:51;42.80;;;21.20;;
56581;SDS011;42463;52.214;21.238;2023-02-17T13:41:24;46.10;;;23.50;;
56581;SDS011;42463;52.214;21.238;2023-02-17T13:43:50;46.00;;;23.20;;
56581;SDS011;42463;52.214;21.238;2023-02-17T13:46:15;47.10;;;24.40;;
56581;SDS011;42463;52.214;21.238;2023-02-17T13:48:44;38.90;;;20.20;;
56581;SDS011;42463;52.214;21.238;2023-02-17T13:51:24;46.30;;;22.20;;
56581;SDS011;42463;52.214;21.238;2023-02-17T13:53:50;45.70;;;23.00;;
56581;SDS011;42463;52.214;21.238;2023-02-17T13:56:24;39.70;;;19.50;;
56581;SDS011;42463;52.214;21.238;2023-02-17T13:58:50;41.10;;;20.00;;
56581;SDS011;42463;52.214;21.238;2023-02-17T14:01:16;43.70;;;21.20;;
56581;SDS011;42463;52.214;21.238;2023-02-17T14:03:47;42.40;;;20.00;;
56581;SDS011;42463;52.214;21.238;2023-02-17T14:06:19;41.90;;;21.10;;
56581;SDS011;42463;52.214;21.238;2023-02-17T14:08:49;39.00;;;21.40;;
56581;SDS011;42463;52.214;21.238;2023-02-17T14:11:15;39.20;;;19.90;;
56581;SDS011;42463;52.214;21.238;2023-02-17T14:13:50;35.70;;;18.30;;
56581;SDS011;42463;52.214;21.238;2023-02-17T14:16:27;41.40;;;21.10;;
56581;SDS011;42463;52.214;21.238;2023-02-17T14:19:03;38.40;;;19.50;;
56581;SDS011;42463;52.214;21.238;2023-02-17T14:21:29;34.90;;;19.00;;
56581;SDS011;42463;52.214;21.238;2023-02-17T14:23:56;35.80;;;18.40;;
56581;SDS011;42463;52.214;21.238;2023-02-17T14:26:28;32.30;;;17.60;;
56581;SDS011;42463;52.214;21.238;2023-02-17T14:28:58;33.10;;;17.10;;
56581;SDS011;42463;52.214;21.238;2023-02-17T14:31:25;34.00;;;17.30;;
56581;SDS011;42463;52.214;21.238;2023-02-17T14:33:54;38.50;;;20.20;;